createdAt,value
2019-03-31T00:02:24.884Z,4.70
2019-03-31T00:05:01.115Z,4.70
2019-03-31T00:07:32.067Z,4.70
2019-03-31T00:10:05.540Z,4.70
2019-03-31T00:15:14.316Z,4.70
2019-03-31T00:17:45.994Z,4.70
2019-03-31T00:20:20.120Z,4.60
2019-03-31T00:23:06.614Z,4.60
2019-03-31T00:25:41.697Z,4.60
2019-03-31T00:28:16.961Z,4.60
2019-03-31T00:30:51.289Z,4.60
2019-03-31T00:33:23.792Z,4.60
2019-03-31T00:35:56.764Z,4.70
2019-03-31T00:38:33.016Z,4.70
2019-03-31T00:41:05.787Z,4.70
2019-03-31T00:43:40.029Z,4.60
2019-03-31T00:46:14.343Z,4.50
2019-03-31T00:48:47.315Z,4.40
2019-03-31T00:51:21.129Z,4.30
2019-03-31T00:53:52.464Z,4.30
2019-03-31T00:56:24.112Z,4.20
2019-03-31T00:58:54.131Z,4.10
2019-03-31T01:01:36.275Z,4.10
2019-03-31T01:04:05.602Z,4.10
2019-03-31T01:06:41.081Z,4.00
2019-03-31T01:09:25.049Z,4.00
2019-03-31T01:11:55.971Z,3.90
2019-03-31T01:14:29.244Z,3.90
2019-03-31T01:17:02.510Z,3.90
2019-03-31T01:19:34.553Z,3.80
2019-03-31T01:22:07.560Z,3.90
2019-03-31T01:24:40.817Z,3.90
2019-03-31T01:27:13.737Z,3.80
2019-03-31T01:29:45.278Z,3.80
2019-03-31T01:32:19.342Z,3.80
2019-03-31T01:34:53.073Z,3.80
2019-03-31T01:37:25.309Z,3.90
2019-03-31T01:39:57.932Z,3.90
2019-03-31T01:42:29.655Z,3.90
2019-03-31T01:45:04.848Z,3.90
2019-03-31T01:47:35.956Z,3.90
2019-03-31T01:50:11.206Z,3.90
2019-03-31T01:52:44.381Z,4.00
2019-03-31T01:55:17.933Z,4.00
2019-03-31T01:57:50.528Z,4.00
2019-03-31T02:00:25.915Z,4.00
2019-03-31T02:02:59.581Z,4.00
2019-03-31T02:05:32.757Z,3.90
2019-03-31T02:08:04.225Z,3.90
2019-03-31T02:10:35.716Z,3.90
2019-03-31T02:13:07.373Z,3.90
2019-03-31T02:15:38.519Z,3.80
2019-03-31T02:18:08.388Z,3.80
2019-03-31T02:20:39.823Z,3.70
2019-03-31T02:23:12.048Z,3.70
2019-03-31T02:25:41.971Z,3.70
2019-03-31T02:28:11.879Z,3.60
2019-03-31T02:30:44.263Z,3.60
2019-03-31T02:33:16.193Z,3.50
2019-03-31T02:35:50.631Z,3.50
2019-03-31T02:38:24.514Z,3.40
2019-03-31T02:40:56.947Z,3.40
2019-03-31T02:43:27.928Z,3.40
2019-03-31T02:45:59.350Z,3.30
2019-03-31T02:48:31.691Z,3.30
2019-03-31T02:51:06.047Z,3.30
2019-03-31T02:53:37.018Z,3.30
2019-03-31T02:56:09.290Z,3.30
2019-03-31T02:58:41.965Z,3.30
2019-03-31T03:01:14.890Z,3.30
2019-03-31T03:03:49.004Z,3.20
2019-03-31T03:06:21.801Z,3.20
2019-03-31T03:08:55.815Z,3.20
2019-03-31T03:11:28.505Z,3.20
2019-03-31T03:14:00.176Z,3.10
2019-03-31T03:16:31.710Z,3.00
2019-03-31T03:19:02.675Z,2.90
2019-03-31T03:21:35.202Z,2.90
2019-03-31T03:24:07.643Z,2.90
2019-03-31T03:26:37.702Z,2.80
2019-03-31T03:29:08.580Z,2.80
2019-03-31T03:31:38.474Z,2.80
2019-03-31T03:34:11.567Z,2.80
2019-03-31T03:36:43.506Z,2.80
2019-03-31T03:39:14.926Z,2.70
2019-03-31T03:41:47.816Z,2.70
2019-03-31T03:44:18.846Z,2.70
2019-03-31T03:46:48.898Z,2.70
2019-03-31T03:49:20.020Z,2.70
2019-03-31T03:51:57.089Z,2.70
2019-03-31T03:54:29.574Z,2.70
2019-03-31T03:57:04.720Z,2.60
2019-03-31T03:59:36.144Z,2.60
2019-03-31T04:02:09.531Z,2.50
2019-03-31T04:04:41.933Z,2.50
2019-03-31T04:07:13.346Z,2.40
2019-03-31T04:09:45.715Z,2.40
2019-03-31T04:12:15.720Z,2.30
2019-03-31T04:14:45.501Z,2.20
2019-03-31T04:17:17.512Z,2.20
2019-03-31T04:19:51.392Z,2.20
2019-03-31T04:22:22.444Z,2.10
2019-03-31T04:27:44.294Z,2.00
2019-03-31T04:30:15.324Z,2.00
2019-03-31T04:32:48.521Z,2.00
2019-03-31T04:35:19.728Z,2.00
2019-03-31T04:37:52.686Z,2.00
2019-03-31T04:40:23.988Z,2.00
2019-03-31T04:42:53.780Z,1.90
2019-03-31T04:45:26.014Z,1.90
2019-03-31T04:47:55.964Z,1.90
2019-03-31T04:50:25.939Z,2.00
2019-03-31T04:53:02.093Z,2.00
2019-03-31T04:55:35.743Z,2.00
2019-03-31T04:58:07.284Z,2.00
2019-03-31T05:00:39.876Z,2.00
2019-03-31T05:03:11.525Z,1.90
2019-03-31T05:05:42.720Z,1.90
2019-03-31T05:08:13.416Z,2.00
2019-03-31T05:10:45.898Z,2.00
2019-03-31T05:13:17.544Z,2.10
2019-03-31T05:15:48.700Z,2.10
2019-03-31T05:18:21.027Z,2.20
2019-03-31T05:20:53.425Z,2.30
2019-03-31T05:23:25.766Z,2.40
2019-03-31T05:25:58.373Z,2.40
2019-03-31T05:28:29.661Z,2.50
2019-03-31T05:31:02.747Z,2.60
2019-03-31T05:33:34.441Z,2.70
2019-03-31T05:36:05.303Z,2.90
2019-03-31T05:38:54.777Z,3.10
2019-03-31T05:41:24.831Z,3.30
2019-03-31T05:44:05.586Z,3.50
2019-03-31T05:46:32.690Z,3.90
2019-03-31T05:49:05.127Z,4.20
2019-03-31T05:51:36.082Z,4.50
2019-03-31T05:54:07.727Z,4.80
2019-03-31T05:56:57.785Z,5.10
2019-03-31T05:59:30.805Z,5.30
2019-03-31T06:02:04.827Z,5.60
2019-03-31T06:04:35.840Z,6.00
2019-03-31T06:07:07.573Z,6.20
2019-03-31T06:09:36.885Z,6.50
2019-03-31T06:12:07.920Z,6.80
2019-03-31T06:14:39.595Z,7.00
2019-03-31T06:17:12.301Z,7.30
2019-03-31T06:19:45.458Z,7.50
2019-03-31T06:22:16.890Z,7.80
2019-03-31T06:24:49.148Z,8.00
2019-03-31T06:27:19.431Z,8.20
2019-03-31T06:29:56.837Z,8.40
2019-03-31T06:32:29.283Z,8.60
2019-03-31T06:35:01.063Z,8.80
2019-03-31T06:37:33.464Z,9.10
2019-03-31T06:40:04.291Z,9.30
2019-03-31T06:42:35.697Z,9.60
2019-03-31T06:45:10.553Z,9.90
2019-03-31T06:47:41.307Z,10.10
2019-03-31T06:50:12.144Z,10.30
2019-03-31T06:52:42.948Z,10.50
2019-03-31T06:55:13.445Z,10.70
2019-03-31T06:57:43.571Z,11.00
2019-03-31T07:00:17.034Z,11.30
2019-03-31T07:02:50.429Z,11.60
2019-03-31T07:05:21.301Z,11.90
2019-03-31T07:07:53.628Z,12.10
2019-03-31T07:10:25.189Z,12.50
2019-03-31T07:12:59.568Z,12.80
2019-03-31T07:15:27.668Z,13.10
2019-03-31T07:18:02.634Z,13.40
2019-03-31T07:20:33.847Z,13.50
2019-03-31T07:23:05.747Z,13.70
2019-03-31T07:25:37.337Z,14.00
2019-03-31T07:28:09.607Z,14.00
2019-03-31T07:30:40.642Z,14.40
2019-03-31T07:33:13.591Z,14.50
2019-03-31T07:35:46.164Z,14.90
2019-03-31T07:38:19.073Z,15.20
2019-03-31T07:40:52.573Z,15.50
2019-03-31T07:43:23.788Z,15.80
2019-03-31T07:45:56.020Z,15.80
2019-03-31T07:48:27.307Z,16.20
2019-03-31T07:50:58.606Z,16.50
2019-03-31T07:53:31.903Z,16.70
2019-03-31T07:56:03.314Z,16.80
2019-03-31T08:01:27.128Z,17.50
2019-03-31T08:04:00.584Z,17.60
2019-03-31T08:06:33.282Z,18.20
2019-03-31T08:09:07.832Z,18.50
2019-03-31T08:11:40.243Z,18.60
2019-03-31T08:14:11.843Z,18.80
2019-03-31T08:16:46.652Z,19.20
2019-03-31T08:19:22.875Z,20.00
2019-03-31T08:21:54.040Z,20.10
2019-03-31T08:24:27.299Z,20.60
2019-03-31T08:26:58.705Z,20.70
2019-03-31T08:29:29.701Z,20.80
2019-03-31T08:32:00.898Z,20.60
2019-03-31T08:34:34.706Z,20.40
2019-03-31T08:37:04.678Z,20.30
2019-03-31T08:39:35.891Z,20.10
2019-03-31T08:42:07.815Z,20.30
2019-03-31T08:44:37.970Z,20.40
2019-03-31T08:47:09.387Z,20.70
2019-03-31T08:49:40.645Z,21.10
2019-03-31T08:52:15.502Z,21.10
2019-03-31T08:54:47.261Z,21.60
2019-03-31T08:57:20.826Z,21.40
2019-03-31T08:59:54.865Z,21.10
2019-03-31T09:02:30.489Z,21.50
2019-03-31T09:05:05.373Z,21.60
2019-03-31T09:07:41.465Z,22.10
2019-03-31T09:10:12.667Z,21.90
2019-03-31T09:12:48.274Z,21.80
2019-03-31T09:15:21.541Z,22.00
2019-03-31T09:17:54.187Z,22.10
2019-03-31T09:20:25.290Z,22.10
2019-03-31T09:22:56.397Z,22.00
2019-03-31T09:25:28.961Z,21.40
2019-03-31T09:28:01.302Z,21.50
2019-03-31T09:30:33.011Z,21.80
2019-03-31T09:33:04.367Z,21.70
2019-03-31T09:35:39.213Z,21.70
2019-03-31T09:38:11.011Z,21.90
2019-03-31T09:40:43.235Z,21.80
2019-03-31T09:43:14.397Z,21.60
2019-03-31T09:45:47.256Z,21.20
2019-03-31T09:48:18.296Z,21.00
2019-03-31T09:50:56.457Z,21.00
2019-03-31T09:53:25.252Z,21.50
2019-03-31T09:56:16.110Z,22.20
2019-03-31T10:01:42.466Z,22.50
2019-03-31T10:04:14.399Z,22.60
2019-03-31T10:06:49.118Z,22.20
2019-03-31T10:09:19.147Z,22.50
2019-03-31T10:11:50.337Z,23.00
2019-03-31T10:14:22.637Z,23.60
2019-03-31T10:16:53.455Z,23.70
2019-03-31T10:19:24.435Z,23.70
2019-03-31T10:22:00.000Z,23.60
2019-03-31T10:24:31.899Z,23.80
2019-03-31T10:27:04.025Z,23.80
2019-03-31T10:29:34.834Z,23.40
2019-03-31T10:32:05.118Z,23.20
2019-03-31T10:34:36.565Z,23.20
2019-03-31T10:37:08.777Z,23.20
2019-03-31T10:39:42.992Z,22.80
2019-03-31T10:42:15.677Z,22.70
2019-03-31T10:44:47.715Z,22.80
2019-03-31T10:47:21.413Z,23.60
2019-03-31T10:49:56.104Z,24.40
2019-03-31T10:52:29.336Z,24.60
2019-03-31T10:55:02.021Z,24.20
2019-03-31T10:57:36.101Z,24.30
2019-03-31T11:00:12.507Z,24.50
2019-03-31T11:02:44.563Z,25.00
2019-03-31T11:05:19.125Z,24.90
2019-03-31T11:07:52.386Z,25.00
2019-03-31T11:10:24.987Z,25.30
2019-03-31T11:12:57.645Z,25.50
2019-03-31T11:15:37.483Z,25.60
2019-03-31T11:18:08.611Z,25.80
2019-03-31T11:20:40.099Z,25.60
2019-03-31T11:23:13.762Z,25.40
2019-03-31T11:25:46.378Z,25.40
2019-03-31T11:28:18.214Z,25.30
2019-03-31T11:30:49.571Z,25.40
2019-03-31T11:33:20.718Z,25.30
2019-03-31T11:35:52.014Z,25.40
2019-03-31T11:38:25.953Z,25.90
2019-03-31T11:40:56.149Z,25.90
2019-03-31T11:43:30.251Z,25.60
2019-03-31T11:46:01.496Z,25.10
2019-03-31T11:48:32.617Z,25.40
2019-03-31T11:51:04.306Z,25.20
2019-03-31T11:53:36.951Z,25.30
2019-03-31T11:56:09.945Z,25.70
2019-03-31T11:58:40.942Z,25.50
2019-03-31T12:01:14.914Z,25.50
2019-03-31T12:03:47.768Z,25.70
2019-03-31T12:06:20.972Z,26.00
2019-03-31T12:08:53.508Z,26.30
2019-03-31T12:11:26.095Z,26.50
2019-03-31T12:13:58.646Z,26.70
2019-03-31T12:16:32.546Z,27.00
2019-03-31T12:19:05.214Z,26.20
2019-03-31T12:21:35.137Z,25.40
2019-03-31T12:24:08.371Z,25.60
2019-03-31T12:26:41.340Z,26.00
2019-03-31T12:29:12.825Z,25.60
2019-03-31T12:31:43.478Z,26.10
2019-03-31T12:34:14.781Z,26.70
2019-03-31T12:36:46.806Z,26.50
2019-03-31T12:39:37.050Z,26.10
2019-03-31T12:42:08.326Z,26.20
2019-03-31T12:44:41.183Z,27.00
2019-03-31T12:47:16.099Z,27.30
2019-03-31T12:49:48.537Z,26.40
2019-03-31T12:52:20.912Z,26.60
2019-03-31T12:54:52.307Z,26.40
2019-03-31T13:00:15.266Z,26.60
2019-03-31T13:02:46.359Z,26.30
2019-03-31T13:05:24.751Z,26.20
2019-03-31T13:07:56.931Z,26.60
2019-03-31T13:10:29.997Z,26.30
2019-03-31T13:13:01.173Z,25.20
2019-03-31T13:15:32.669Z,25.00
2019-03-31T13:18:03.784Z,24.90
2019-03-31T13:20:34.898Z,25.20
2019-03-31T13:23:04.870Z,25.20
2019-03-31T13:25:36.745Z,24.90
2019-03-31T13:28:07.799Z,23.90
2019-03-31T13:30:41.047Z,23.60
2019-03-31T13:33:12.841Z,24.30
2019-03-31T13:35:47.144Z,24.70
2019-03-31T13:38:19.047Z,24.70
2019-03-31T13:40:52.504Z,25.00
2019-03-31T13:43:30.397Z,25.00
2019-03-31T13:46:02.727Z,24.00
2019-03-31T13:48:32.931Z,23.10
2019-03-31T13:51:06.492Z,22.50
2019-03-31T13:53:39.655Z,22.10
2019-03-31T13:56:11.578Z,21.70
2019-03-31T13:58:52.179Z,22.00
2019-03-31T14:01:17.362Z,23.00
2019-03-31T14:03:48.918Z,23.60
2019-03-31T14:06:19.025Z,23.70
2019-03-31T14:08:53.633Z,23.60
2019-03-31T14:11:24.887Z,22.50
2019-03-31T14:13:57.106Z,21.40
2019-03-31T14:16:29.540Z,21.30
2019-03-31T14:19:04.358Z,21.30
2019-03-31T14:21:40.150Z,21.80
2019-03-31T14:24:11.925Z,22.10
2019-03-31T14:26:43.275Z,21.60
2019-03-31T14:29:14.321Z,20.50
2019-03-31T14:31:47.565Z,19.70
2019-03-31T14:34:22.844Z,19.30
2019-03-31T14:36:55.796Z,19.30
2019-03-31T14:39:28.168Z,19.80
2019-03-31T14:41:58.434Z,19.90
2019-03-31T14:44:31.932Z,20.40
2019-03-31T14:47:05.698Z,20.70
2019-03-31T14:49:37.246Z,21.20
2019-03-31T14:52:10.374Z,21.50
2019-03-31T14:54:44.835Z,21.20
2019-03-31T14:57:20.209Z,20.90
2019-03-31T14:59:54.833Z,20.70
2019-03-31T15:02:26.389Z,20.30
2019-03-31T15:04:59.098Z,20.30
2019-03-31T15:07:30.926Z,20.40
2019-03-31T15:10:02.248Z,20.70
2019-03-31T15:12:32.286Z,20.60
2019-03-31T15:15:04.829Z,20.40
2019-03-31T15:17:37.827Z,20.40
2019-03-31T15:20:09.040Z,20.40
2019-03-31T15:22:40.203Z,20.30
2019-03-31T15:25:12.715Z,20.00
2019-03-31T15:27:43.661Z,19.90
2019-03-31T15:30:17.241Z,19.60
2019-03-31T15:32:48.542Z,19.60
2019-03-31T15:35:19.987Z,19.40
2019-03-31T15:37:51.019Z,19.30
2019-03-31T15:40:25.642Z,19.10
2019-03-31T15:43:15.758Z,18.90
2019-03-31T15:45:46.849Z,18.90
2019-03-31T15:48:20.122Z,18.30
2019-03-31T15:50:51.514Z,17.80
2019-03-31T15:53:24.436Z,17.30
2019-03-31T15:55:54.521Z,17.00
2019-03-31T16:01:15.142Z,16.70
2019-03-31T16:03:47.416Z,16.40
2019-03-31T16:06:20.474Z,16.30
2019-03-31T16:08:54.136Z,16.20
2019-03-31T16:11:26.752Z,16.20
2019-03-31T16:13:57.559Z,16.00
2019-03-31T16:16:31.742Z,15.90
2019-03-31T16:19:06.885Z,15.90
2019-03-31T16:21:38.466Z,15.90
2019-03-31T16:24:08.964Z,15.80
2019-03-31T16:26:40.250Z,15.80
2019-03-31T16:29:14.644Z,15.70
2019-03-31T16:31:45.657Z,15.50
2019-03-31T16:34:18.319Z,15.30
2019-03-31T16:36:50.876Z,15.30
2019-03-31T16:39:20.823Z,15.10
2019-03-31T16:41:52.434Z,14.90
2019-03-31T16:44:23.708Z,14.80
2019-03-31T16:46:55.952Z,14.60
2019-03-31T16:49:27.067Z,14.50
2019-03-31T16:52:00.748Z,14.30
2019-03-31T16:54:35.382Z,14.30
2019-03-31T16:57:09.721Z,14.20
2019-03-31T16:59:42.776Z,14.20
2019-03-31T17:02:14.629Z,14.20
2019-03-31T17:04:47.725Z,14.10
2019-03-31T17:07:17.934Z,13.90
2019-03-31T17:09:51.689Z,13.80
2019-03-31T17:12:21.682Z,13.60
2019-03-31T17:17:41.665Z,13.40
2019-03-31T17:20:33.578Z,13.20
2019-03-31T17:23:07.758Z,13.10
2019-03-31T17:25:39.532Z,12.90
2019-03-31T17:28:10.613Z,12.90
2019-03-31T17:30:40.571Z,12.70
2019-03-31T17:33:13.271Z,12.70
2019-03-31T17:35:45.930Z,12.50
2019-03-31T17:38:18.617Z,12.50
2019-03-31T17:40:49.605Z,12.40
2019-03-31T17:43:20.709Z,12.40
2019-03-31T17:45:56.655Z,12.30
2019-03-31T17:48:30.001Z,12.20
2019-03-31T17:51:00.847Z,12.10
2019-03-31T17:53:32.550Z,12.10
2019-03-31T17:56:06.964Z,12.00
2019-03-31T17:58:39.546Z,11.90
2019-03-31T18:01:11.582Z,11.90
2019-03-31T18:03:47.102Z,12.00
2019-03-31T18:06:19.237Z,11.90
2019-03-31T18:08:51.683Z,11.80
2019-03-31T18:11:23.204Z,11.80
2019-03-31T18:13:53.218Z,11.70
2019-03-31T18:16:27.813Z,11.70
2019-03-31T18:19:01.378Z,11.60
2019-03-31T18:21:33.221Z,11.60
2019-03-31T18:24:09.292Z,11.70
2019-03-31T18:26:41.493Z,11.70
2019-03-31T18:29:15.064Z,11.60
2019-03-31T18:31:48.312Z,11.50
2019-03-31T18:34:22.822Z,11.60
2019-03-31T18:36:57.351Z,11.60
2019-03-31T18:39:28.682Z,11.50
2019-03-31T18:42:02.641Z,11.50
2019-03-31T18:44:35.471Z,11.60
2019-03-31T18:47:11.424Z,11.60
2019-03-31T18:49:43.462Z,11.50
2019-03-31T18:52:20.623Z,11.40
2019-03-31T18:55:08.337Z,11.40
2019-03-31T18:57:40.649Z,11.30
2019-03-31T19:00:30.293Z,11.20
2019-03-31T19:03:07.659Z,11.20
2019-03-31T19:05:45.199Z,11.10
2019-03-31T19:08:24.534Z,11.00
2019-03-31T19:11:07.158Z,10.90
2019-03-31T19:14:04.562Z,10.90
2019-03-31T19:17:02.500Z,10.80
2019-03-31T19:19:54.452Z,10.80
2019-03-31T19:22:43.559Z,10.70
2019-03-31T19:25:19.009Z,10.70
2019-03-31T19:30:47.782Z,10.40
2019-03-31T19:33:23.143Z,10.40
2019-03-31T19:36:12.262Z,10.40
2019-03-31T19:38:49.130Z,10.40
2019-03-31T19:41:29.290Z,10.40
2019-03-31T19:44:06.477Z,10.30
2019-03-31T19:49:45.535Z,10.40
2019-03-31T19:52:30.811Z,10.40
2019-03-31T19:55:20.069Z,10.30
2019-03-31T19:57:55.953Z,10.30
2019-03-31T20:00:47.995Z,10.30
2019-03-31T20:03:35.882Z,10.30
2019-03-31T20:09:04.164Z,10.20
2019-03-31T20:11:35.634Z,10.10
2019-03-31T20:14:09.263Z,10.10
2019-03-31T20:16:44.390Z,10.00
2019-03-31T20:19:16.462Z,9.90
2019-03-31T20:21:50.650Z,9.90
2019-03-31T20:24:28.046Z,9.90
2019-03-31T20:27:03.919Z,9.90
2019-03-31T20:29:44.287Z,9.80
2019-03-31T20:32:16.710Z,9.80
2019-03-31T20:34:48.200Z,9.80
2019-03-31T20:37:19.788Z,9.80
2019-03-31T20:39:57.014Z,9.70
2019-03-31T20:42:33.486Z,9.70
2019-03-31T20:45:05.783Z,9.70
2019-03-31T20:47:38.164Z,9.70
2019-03-31T20:50:28.862Z,9.70
2019-03-31T20:53:03.518Z,9.70
2019-03-31T20:55:36.490Z,9.60
2019-03-31T20:58:09.503Z,9.60
2019-03-31T21:00:39.480Z,9.50
2019-03-31T21:03:09.541Z,9.40
2019-03-31T21:05:41.621Z,9.40
2019-03-31T21:08:13.155Z,9.40
2019-03-31T21:10:45.632Z,9.30
2019-03-31T21:13:17.736Z,9.20
2019-03-31T21:15:46.611Z,9.10
2019-03-31T21:18:16.476Z,9.00
2019-03-31T21:20:48.977Z,8.90
2019-03-31T21:23:21.252Z,8.80
2019-03-31T21:25:53.784Z,8.70
2019-03-31T21:28:24.563Z,8.50
2019-03-31T21:30:54.407Z,8.50
2019-03-31T21:33:28.729Z,8.40
2019-03-31T21:36:01.266Z,8.30
2019-03-31T21:38:32.093Z,8.20
2019-03-31T21:41:05.753Z,8.20
2019-03-31T21:43:38.164Z,8.10
2019-03-31T21:46:10.989Z,8.00
2019-03-31T21:48:42.485Z,7.90
2019-03-31T21:51:13.584Z,7.90
2019-03-31T21:53:44.639Z,7.80
2019-03-31T21:56:16.151Z,7.70
2019-03-31T21:58:51.150Z,7.60
2019-03-31T22:01:24.164Z,7.50
2019-03-31T22:03:54.036Z,7.40
2019-03-31T22:06:25.016Z,7.40
2019-03-31T22:08:59.342Z,7.40
2019-03-31T22:11:31.694Z,7.30
2019-03-31T22:14:04.229Z,7.20
2019-03-31T22:16:53.494Z,7.20
2019-03-31T22:19:25.682Z,7.20
2019-03-31T22:21:56.710Z,7.20
2019-03-31T22:24:27.900Z,7.10
2019-03-31T22:27:02.017Z,7.00
2019-03-31T22:29:33.706Z,7.00
2019-03-31T22:32:04.704Z,7.00
2019-03-31T22:34:36.088Z,6.90
2019-03-31T22:37:08.534Z,6.90
2019-03-31T22:39:39.403Z,6.80
2019-03-31T22:42:10.307Z,6.80
2019-03-31T22:44:41.332Z,6.70
2019-03-31T22:47:12.390Z,6.60
2019-03-31T22:49:44.632Z,6.60
2019-03-31T22:52:16.941Z,6.50
2019-03-31T22:54:47.917Z,6.50
2019-03-31T22:57:22.273Z,6.40
2019-03-31T22:59:53.115Z,6.40
2019-03-31T23:02:24.172Z,6.40
2019-03-31T23:04:56.605Z,6.30
2019-03-31T23:07:29.409Z,6.20
2019-03-31T23:10:03.889Z,6.20
2019-03-31T23:12:34.824Z,6.00
2019-03-31T23:15:06.794Z,6.00
2019-03-31T23:17:40.755Z,6.00
2019-03-31T23:20:11.672Z,5.90
2019-03-31T23:22:42.718Z,5.90
2019-03-31T23:25:13.796Z,5.90
2019-03-31T23:27:44.780Z,5.80
2019-03-31T23:30:17.535Z,5.80
2019-03-31T23:32:51.857Z,5.80
2019-03-31T23:35:22.894Z,5.70
2019-03-31T23:37:55.407Z,5.70
2019-03-31T23:40:25.213Z,5.60
2019-03-31T23:42:57.449Z,5.60
2019-03-31T23:45:27.325Z,5.50
2019-03-31T23:47:59.720Z,5.50
2019-03-31T23:50:30.829Z,5.40
2019-03-31T23:53:00.830Z,5.30
2019-03-31T23:55:31.681Z,5.30
2019-03-31T23:58:02.500Z,5.20
